NORTHEAST SUFFOLK  -  Special Weather Statement Special Weather Statement        NORTHERN NASSAU  -  Special Weather Statement Special Weather Statement        NORTHWEST SUFFOLK  -  Special Weather Statement Special Weather Statement        SOUTHEAST SUFFOLK  -  Special Weather Statement Special Weather Statement        SOUTHERN NASSAU  -  Special Weather Statement Special Weather Statement        SOUTHWEST SUFFOLK  -  Special Weather Statement Special Weather Statement      

Active alerts

Northern Nassau
  Details for Northern Nassau Special Weather Statement
Southern Nassau
  Details for Southern Nassau Special Weather Statement
Northwest Suffolk
  Details for Northwest Suffolk Special Weather Statement
Southwest Suffolk
  Details for Southwest Suffolk Special Weather Statement
Northeast Suffolk
  Details for Northeast Suffolk Special Weather Statement
Southeast Suffolk
  Details for Southeast Suffolk Special Weather Statement


WXM80 ListenWXM80 Stop

You find our weather info also at:

UK Metoffice

WeatherCloud

Weather Underground

Northeastern Weather Network

AWEKAS

Citizen Weather Observer Program (CWOP)

HAMweather, WeatherForYou, PWS Weather


Weather Underground History page Text

Daily Summary for May 11, 2017 Units:  Both    English   Metric
« Previous Day
Next Day »
Daily Weekly Monthly Yearly Custom
  High: Low: Average:
Temperature: 63.8 °F /  17.7 °C 47.1 °F /  8.4 °C 54.5 °F /  12.5 °C
Dew Point: 46.0 °F /  7.8 °C 39.2 °F /  4 °C 42.2 °F /  5.7 °C
Humidity: 82 % 43 % 64 %
Wind Speed: 5.2 mph /  8.4 km/h - 1.2 mph /  1.9 km/h
Wind Gust: 9.0 mph /  14.5 km/h - -
Wind:- - ESE
Pressure: 30.01 in /  1016.1 hPa 29.92 in /  1013.1 hPa -
Precipitation: 0.00 in /  0 mm    
Historical Graphs
 
 
Tabular Data for May 11, 2017
Time Temperature Dew Point Pressure Wind Wind Speed Wind Gust Humidity Rainfall Rate (Hourly)
00:02 52.5 °F /  11.4 °C 40.3 °F /  4.6 °C 30.01 in /  1016.1 hPa NNE 3.6 mph /  5.8 km/h 5.0 mph /  8 km/h 63 % 0.00 in /  0 mm
00:07 52.4 °F /  11.3 °C 40.2 °F /  4.6 °C 30.01 in /  1016.1 hPa NNE 0.5 mph /  0.8 km/h 3.5 mph /  5.6 km/h 63 % 0.00 in /  0 mm
00:12 52.4 °F /  11.3 °C 40.2 °F /  4.6 °C 30.01 in /  1016.1 hPa NNE 0.5 mph /  0.8 km/h 3.5 mph /  5.6 km/h 63 % 0.00 in /  0 mm
00:17 52.3 °F /  11.3 °C 40.1 °F /  4.5 °C 30.01 in /  1016.1 hPa Calm     63 % 0.00 in /  0 mm
00:22 52.3 °F /  11.3 °C 40.1 °F /  4.5 °C 30.01 in /  1016.1 hPa NNE 0.2 mph /  0.3 km/h 2.3 mph /  3.7 km/h 63 % 0.00 in /  0 mm
00:27 52.1 °F /  11.2 °C 39.9 °F /  4.4 °C 30.01 in /  1016.1 hPa NNE 0.2 mph /  0.3 km/h 1.2 mph /  1.9 km/h 63 % 0.00 in /  0 mm
00:32 52.1 °F /  11.2 °C 40.3 °F /  4.6 °C 30.01 in /  1016.1 hPa NNE 0.1 mph /  0.2 km/h 1.2 mph /  1.9 km/h 64 % 0.00 in /  0 mm
00:37 52.0 °F /  11.1 °C 40.6 °F /  4.8 °C 30.01 in /  1016.1 hPa Calm   1.2 mph /  1.9 km/h 65 % 0.00 in /  0 mm
00:42 51.9 °F /  11.1 °C 40.5 °F /  4.7 °C 30.01 in /  1016.1 hPa Calm     65 % 0.00 in /  0 mm
00:47 51.7 °F /  10.9 °C 40.7 °F /  4.8 °C 30.01 in /  1016.1 hPa Calm     66 % 0.00 in /  0 mm
00:52 51.6 °F /  10.9 °C 40.6 °F /  4.8 °C 30.01 in /  1016.1 hPa Calm     66 % 0.00 in /  0 mm
00:57 51.4 °F /  10.8 °C 40.8 °F /  4.9 °C 30.01 in /  1016.1 hPa Calm     67 % 0.00 in /  0 mm
01:02 51.3 °F /  10.7 °C 41.1 °F /  5.1 °C 30.00 in /  1015.8 hPa Calm     68 % 0.00 in /  0 mm
01:07 51.1 °F /  10.6 °C 40.9 °F /  4.9 °C 30.00 in /  1015.8 hPa Calm     68 % 0.00 in /  0 mm
01:12 51.0 °F /  10.6 °C 40.8 °F /  4.9 °C 30.00 in /  1015.8 hPa Calm     68 % 0.00 in /  0 mm
01:17 50.8 °F /  10.4 °C 41.0 °F /  5 °C 30.00 in /  1015.8 hPa Calm   1.2 mph /  1.9 km/h 69 % 0.00 in /  0 mm
01:22 50.6 °F /  10.3 °C 40.8 °F /  4.9 °C 30.00 in /  1015.8 hPa North 1.3 mph /  2.1 km/h 3.5 mph /  5.6 km/h 69 % 0.00 in /  0 mm
01:27 50.4 °F /  10.2 °C 40.6 °F /  4.8 °C 30.00 in /  1015.8 hPa NNW 0.7 mph /  1.1 km/h 2.3 mph /  3.7 km/h 69 % 0.00 in /  0 mm
01:32 50.2 °F /  10.1 °C 40.8 °F /  4.9 °C 29.99 in /  1015.5 hPa Calm     70 % 0.00 in /  0 mm
01:37 50.0 °F /  10 °C 41.3 °F /  5.2 °C 30.00 in /  1015.8 hPa Calm     72 % 0.00 in /  0 mm
01:42 49.8 °F /  9.9 °C 41.1 °F /  5.1 °C 29.99 in /  1015.5 hPa Calm     72 % 0.00 in /  0 mm
01:47 49.6 °F /  9.8 °C 40.9 °F /  4.9 °C 30.00 in /  1015.8 hPa NNW 0.1 mph /  0.2 km/h 1.2 mph /  1.9 km/h 72 % 0.00 in /  0 mm
01:52 49.4 °F /  9.7 °C 40.7 °F /  4.8 °C 30.00 in /  1015.8 hPa NNW 0.2 mph /  0.3 km/h 1.2 mph /  1.9 km/h 72 % 0.00 in /  0 mm
01:57 49.1 °F /  9.5 °C 40.8 °F /  4.9 °C 29.99 in /  1015.5 hPa Calm     73 % 0.00 in /  0 mm
02:02 48.9 °F /  9.4 °C 40.3 °F /  4.6 °C 29.99 in /  1015.5 hPa Calm     72 % 0.00 in /  0 mm
02:07 48.8 °F /  9.3 °C 40.5 °F /  4.7 °C 29.99 in /  1015.5 hPa Calm     73 % 0.00 in /  0 mm
02:12 48.7 °F /  9.3 °C 40.8 °F /  4.9 °C 29.99 in /  1015.5 hPa Calm     74 % 0.00 in /  0 mm
02:17 48.6 °F /  9.2 °C 40.7 °F /  4.8 °C 29.99 in /  1015.5 hPa NNW 0.8 mph /  1.3 km/h 3.5 mph /  5.6 km/h 74 % 0.00 in /  0 mm
02:23 48.5 °F /  9.2 °C 40.6 °F /  4.8 °C 29.98 in /  1015.1 hPa Calm   1.2 mph /  1.9 km/h 74 % 0.00 in /  0 mm
02:28 48.5 °F /  9.2 °C 40.6 °F /  4.8 °C 29.98 in /  1015.1 hPa Calm     74 % 0.00 in /  0 mm
02:33 48.5 °F /  9.2 °C 40.6 °F /  4.8 °C 29.98 in /  1015.1 hPa Calm     74 % 0.00 in /  0 mm
02:38 48.5 °F /  9.2 °C 40.6 °F /  4.8 °C 29.97 in /  1014.8 hPa Calm     74 % 0.00 in /  0 mm
02:43 48.5 °F /  9.2 °C 40.2 °F /  4.6 °C 29.97 in /  1014.8 hPa NNW 0.9 mph /  1.4 km/h 2.0 mph /  3.2 km/h 73 % 0.00 in /  0 mm
02:48 48.4 °F /  9.1 °C 39.8 °F /  4.3 °C 29.98 in /  1015.1 hPa Calm     72 % 0.00 in /  0 mm
02:52 48.5 °F /  9.2 °C 39.9 °F /  4.4 °C 29.97 in /  1014.8 hPa Calm     72 % 0.00 in /  0 mm
02:57 48.5 °F /  9.2 °C 39.9 °F /  4.4 °C 29.98 in /  1015.1 hPa Calm     72 % 0.00 in /  0 mm
03:02 48.5 °F /  9.2 °C 39.9 °F /  4.4 °C 29.98 in /  1015.1 hPa NNW 0.1 mph /  0.2 km/h 1.2 mph /  1.9 km/h 72 % 0.00 in /  0 mm
03:07 48.5 °F /  9.2 °C 40.2 °F /  4.6 °C 29.98 in /  1015.1 hPa WNW 0.3 mph /  0.5 km/h 3.5 mph /  5.6 km/h 73 % 0.00 in /  0 mm
03:13 48.6 °F /  9.2 °C 40.3 °F /  4.6 °C 29.98 in /  1015.1 hPa Calm     73 % 0.00 in /  0 mm
03:18 48.6 °F /  9.2 °C 40.7 °F /  4.8 °C 29.98 in /  1015.1 hPa Calm   2.3 mph /  3.7 km/h 74 % 0.00 in /  0 mm
03:23 48.7 °F /  9.3 °C 40.4 °F /  4.7 °C 29.99 in /  1015.5 hPa NW 0.3 mph /  0.5 km/h 3.5 mph /  5.6 km/h 73 % 0.00 in /  0 mm
03:28 48.7 °F /  9.3 °C 40.4 °F /  4.7 °C 29.98 in /  1015.1 hPa NW 0.8 mph /  1.3 km/h 3.5 mph /  5.6 km/h 73 % 0.00 in /  0 mm
03:33 48.8 °F /  9.3 °C 40.5 °F /  4.7 °C 29.99 in /  1015.5 hPa NW 0.8 mph /  1.3 km/h 2.3 mph /  3.7 km/h 73 % 0.00 in /  0 mm
03:34 48.8 °F /  9.3 °C 40.5 °F /  4.7 °C 29.99 in /  1015.5 hPa NW 0.5 mph /  0.8 km/h 3.0 mph /  4.8 km/h 73 % 0.00 in /  0 mm
03:39 48.9 °F /  9.4 °C 40.3 °F /  4.6 °C 29.99 in /  1015.5 hPa NW 0.2 mph /  0.3 km/h 2.3 mph /  3.7 km/h 72 % 0.00 in /  0 mm
03:40 48.9 °F /  9.4 °C 40.3 °F /  4.6 °C 29.99 in /  1015.5 hPa NW 0.2 mph /  0.3 km/h 2.3 mph /  3.7 km/h 72 % 0.00 in /  0 mm
03:45 48.9 °F /  9.4 °C 39.9 °F /  4.4 °C 29.99 in /  1015.5 hPa NW 0.1 mph /  0.2 km/h 2.3 mph /  3.7 km/h 71 % 0.00 in /  0 mm
03:50 49.0 °F /  9.4 °C 39.6 °F /  4.2 °C 29.99 in /  1015.5 hPa Calm     70 % 0.00 in /  0 mm
03:52 49.0 °F /  9.4 °C 39.6 °F /  4.2 °C 29.99 in /  1015.5 hPa NNW 1.8 mph /  2.9 km/h 3.5 mph /  5.6 km/h 70 % 0.00 in /  0 mm
03:57 48.9 °F /  9.4 °C 39.2 °F /  4 °C 29.99 in /  1015.5 hPa Calm     69 % 0.00 in /  0 mm
04:02 48.9 °F /  9.4 °C 39.5 °F /  4.2 °C 29.99 in /  1015.5 hPa Calm     70 % 0.00 in /  0 mm
04:07 48.9 °F /  9.4 °C 39.5 °F /  4.2 °C 29.99 in /  1015.5 hPa NNW 1.6 mph /  2.6 km/h 3.5 mph /  5.6 km/h 70 % 0.00 in /  0 mm
04:12 48.8 °F /  9.3 °C 40.2 °F /  4.6 °C 29.99 in /  1015.5 hPa NNW 0.8 mph /  1.3 km/h 2.0 mph /  3.2 km/h 72 % 0.00 in /  0 mm
04:17 48.8 °F /  9.3 °C 40.5 °F /  4.7 °C 29.98 in /  1015.1 hPa Calm     73 % 0.00 in /  0 mm
04:22 48.7 °F /  9.3 °C 40.1 °F /  4.5 °C 29.99 in /  1015.5 hPa Calm     72 % 0.00 in /  0 mm
04:27 48.6 °F /  9.2 °C 40.0 °F /  4.4 °C 29.99 in /  1015.5 hPa NNW 1.4 mph /  2.3 km/h 3.5 mph /  5.6 km/h 72 % 0.00 in /  0 mm
04:32 48.5 °F /  9.2 °C 39.5 °F /  4.2 °C 29.99 in /  1015.5 hPa NNW 0.4 mph /  0.6 km/h 2.3 mph /  3.7 km/h 71 % 0.00 in /  0 mm
04:37 48.4 °F /  9.1 °C 39.8 °F /  4.3 °C 29.99 in /  1015.5 hPa North 2.2 mph /  3.5 km/h 3.5 mph /  5.6 km/h 72 % 0.00 in /  0 mm
04:42 48.3 °F /  9.1 °C 40.4 °F /  4.7 °C 29.99 in /  1015.5 hPa North 1.2 mph /  1.9 km/h 3.5 mph /  5.6 km/h 74 % 0.00 in /  0 mm
04:47 48.2 °F /  9 °C 40.6 °F /  4.8 °C 29.99 in /  1015.5 hPa North 1.3 mph /  2.1 km/h 3.5 mph /  5.6 km/h 75 % 0.00 in /  0 mm
04:52 48.2 °F /  9 °C 40.3 °F /  4.6 °C 29.99 in /  1015.5 hPa North 0.9 mph /  1.4 km/h 2.3 mph /  3.7 km/h 74 % 0.00 in /  0 mm
04:57 48.1 °F /  8.9 °C 40.2 °F /  4.6 °C 29.99 in /  1015.5 hPa North 0.4 mph /  0.6 km/h 2.3 mph /  3.7 km/h 74 % 0.00 in /  0 mm
05:02 48.1 °F /  8.9 °C 40.5 °F /  4.7 °C 29.99 in /  1015.5 hPa Calm   1.2 mph /  1.9 km/h 75 % 0.00 in /  0 mm
05:07 48.0 °F /  8.9 °C 40.1 °F /  4.5 °C 29.99 in /  1015.5 hPa North 0.5 mph /  0.8 km/h 2.3 mph /  3.7 km/h 74 % 0.00 in /  0 mm
05:12 48.0 °F /  8.9 °C 40.1 °F /  4.5 °C 29.99 in /  1015.5 hPa North 0.1 mph /  0.2 km/h 1.2 mph /  1.9 km/h 74 % 0.00 in /  0 mm
05:17 48.0 °F /  8.9 °C 40.5 °F /  4.7 °C 29.99 in /  1015.5 hPa North 1.4 mph /  2.3 km/h 3.5 mph /  5.6 km/h 75 % 0.00 in /  0 mm
05:22 47.9 °F /  8.8 °C 40.7 °F /  4.8 °C 29.99 in /  1015.5 hPa North 0.6 mph /  1 km/h 1.2 mph /  1.9 km/h 76 % 0.00 in /  0 mm
05:27 47.8 °F /  8.8 °C 40.6 °F /  4.8 °C 29.99 in /  1015.5 hPa Calm   1.2 mph /  1.9 km/h 76 % 0.00 in /  0 mm
05:32 47.7 °F /  8.7 °C 40.8 °F /  4.9 °C 29.99 in /  1015.5 hPa North 0.3 mph /  0.5 km/h 2.0 mph /  3.2 km/h 77 % 0.00 in /  0 mm
05:37 47.6 °F /  8.7 °C 41.1 °F /  5.1 °C 29.99 in /  1015.5 hPa North 1.3 mph /  2.1 km/h 2.3 mph /  3.7 km/h 78 % 0.00 in /  0 mm
05:42 47.5 °F /  8.6 °C 40.6 °F /  4.8 °C 29.99 in /  1015.5 hPa North 1.3 mph /  2.1 km/h 2.3 mph /  3.7 km/h 77 % 0.00 in /  0 mm
05:47 47.4 °F /  8.6 °C 40.6 °F /  4.8 °C 30.00 in /  1015.8 hPa North 0.2 mph /  0.3 km/h   77 % 0.00 in /  0 mm
05:52 47.4 °F /  8.6 °C 40.6 °F /  4.8 °C 30.00 in /  1015.8 hPa North 0.2 mph /  0.3 km/h 1.2 mph /  1.9 km/h 77 % 0.00 in /  0 mm
05:57 47.3 °F /  8.5 °C 40.5 °F /  4.7 °C 30.00 in /  1015.8 hPa North 1.1 mph /  1.8 km/h 2.0 mph /  3.2 km/h 77 % 0.00 in /  0 mm
06:02 47.2 °F /  8.4 °C 40.4 °F /  4.7 °C 30.00 in /  1015.8 hPa North 0.4 mph /  0.6 km/h 1.2 mph /  1.9 km/h 77 % 0.00 in /  0 mm
06:07 47.2 °F /  8.4 °C 40.4 °F /  4.7 °C 30.00 in /  1015.8 hPa Calm     77 % 0.00 in /  0 mm
06:12 47.1 °F /  8.4 °C 40.3 °F /  4.6 °C 30.00 in /  1015.8 hPa Calm     77 % 0.00 in /  0 mm
06:17 47.1 °F /  8.4 °C 40.6 °F /  4.8 °C 30.00 in /  1015.8 hPa Calm     78 % 0.00 in /  0 mm
06:22 47.1 °F /  8.4 °C 41.2 °F /  5.1 °C 30.00 in /  1015.8 hPa Calm     80 % 0.00 in /  0 mm
06:27 47.2 °F /  8.4 °C 41.7 °F /  5.4 °C 30.00 in /  1015.8 hPa North 0.5 mph /  0.8 km/h 3.5 mph /  5.6 km/h 81 % 0.00 in /  0 mm
06:32 47.3 °F /  8.5 °C 41.8 °F /  5.4 °C 30.00 in /  1015.8 hPa NNW 0.6 mph /  1 km/h 3.5 mph /  5.6 km/h 81 % 0.00 in /  0 mm
06:38 47.5 °F /  8.6 °C 42.3 °F /  5.7 °C 30.00 in /  1015.8 hPa North 2.2 mph /  3.5 km/h 3.5 mph /  5.6 km/h 82 % 0.00 in /  0 mm
06:43 47.9 °F /  8.8 °C 42.3 °F /  5.7 °C 30.00 in /  1015.8 hPa NNW 1.7 mph /  2.7 km/h 3.5 mph /  5.6 km/h 81 % 0.00 in /  0 mm
06:48 48.2 °F /  9 °C 42.3 °F /  5.7 °C 30.00 in /  1015.8 hPa NNW 0.4 mph /  0.6 km/h 3.0 mph /  4.8 km/h 80 % 0.00 in /  0 mm
06:53 48.5 °F /  9.2 °C 42.3 °F /  5.7 °C 30.00 in /  1015.8 hPa NNW 0.3 mph /  0.5 km/h 3.5 mph /  5.6 km/h 79 % 0.00 in /  0 mm
06:58 48.9 °F /  9.4 °C 42.0 °F /  5.6 °C 30.00 in /  1015.8 hPa North 2.7 mph /  4.3 km/h 4.6 mph /  7.4 km/h 77 % 0.00 in /  0 mm
07:03 49.4 °F /  9.7 °C 42.1 °F /  5.6 °C 29.99 in /  1015.5 hPa NNW 0.9 mph /  1.4 km/h 2.3 mph /  3.7 km/h 76 % 0.00 in /  0 mm
07:08 49.9 °F /  9.9 °C 42.6 °F /  5.9 °C 29.99 in /  1015.5 hPa North 0.3 mph /  0.5 km/h 1.2 mph /  1.9 km/h 76 % 0.00 in /  0 mm
07:13 50.3 °F /  10.2 °C 43.0 °F /  6.1 °C 29.99 in /  1015.5 hPa NNE 3.2 mph /  5.1 km/h 4.0 mph /  6.4 km/h 76 % 0.00 in /  0 mm
07:18 50.9 °F /  10.5 °C 43.3 °F /  6.3 °C 29.99 in /  1015.5 hPa NE 0.1 mph /  0.2 km/h 1.2 mph /  1.9 km/h 75 % 0.00 in /  0 mm
07:23 51.4 °F /  10.8 °C 43.4 °F /  6.3 °C 29.99 in /  1015.5 hPa ENE 0.1 mph /  0.2 km/h 1.2 mph /  1.9 km/h 74 % 0.00 in /  0 mm
07:28 51.8 °F /  11 °C 43.8 °F /  6.6 °C 29.99 in /  1015.5 hPa NNE 0.7 mph /  1.1 km/h 3.0 mph /  4.8 km/h 74 % 0.00 in /  0 mm
07:33 52.0 °F /  11.1 °C 43.3 °F /  6.3 °C 29.98 in /  1015.1 hPa NNE 1.2 mph /  1.9 km/h 3.5 mph /  5.6 km/h 72 % 0.00 in /  0 mm
07:38 52.2 °F /  11.2 °C 44.2 °F /  6.8 °C 29.99 in /  1015.5 hPa North 0.5 mph /  0.8 km/h 3.5 mph /  5.6 km/h 74 % 0.00 in /  0 mm
07:43 52.3 °F /  11.3 °C 43.5 °F /  6.4 °C 29.99 in /  1015.5 hPa North 1.7 mph /  2.7 km/h 3.5 mph /  5.6 km/h 72 % 0.00 in /  0 mm
07:48 52.3 °F /  11.3 °C 43.9 °F /  6.6 °C 29.98 in /  1015.1 hPa NNW 0.9 mph /  1.4 km/h 2.3 mph /  3.7 km/h 73 % 0.00 in /  0 mm
07:53 52.5 °F /  11.4 °C 44.4 °F /  6.9 °C 29.98 in /  1015.1 hPa NNW 0.8 mph /  1.3 km/h 2.3 mph /  3.7 km/h 74 % 0.00 in /  0 mm
07:58 52.7 °F /  11.5 °C 45.0 °F /  7.2 °C 29.99 in /  1015.5 hPa NNW 1.3 mph /  2.1 km/h 3.0 mph /  4.8 km/h 75 % 0.00 in /  0 mm
08:03 52.8 °F /  11.6 °C 44.0 °F /  6.7 °C 29.98 in /  1015.1 hPa NNW 1.3 mph /  2.1 km/h 3.5 mph /  5.6 km/h 72 % 0.00 in /  0 mm
08:08 53.1 °F /  11.7 °C 44.7 °F /  7.1 °C 29.98 in /  1015.1 hPa North 0.3 mph /  0.5 km/h 1.2 mph /  1.9 km/h 73 % 0.00 in /  0 mm
08:13 53.3 °F /  11.8 °C 44.9 °F /  7.2 °C 29.98 in /  1015.1 hPa North 2.1 mph /  3.4 km/h 3.5 mph /  5.6 km/h 73 % 0.00 in /  0 mm
08:18 53.6 °F /  12 °C 44.8 °F /  7.1 °C 29.98 in /  1015.1 hPa North 1.3 mph /  2.1 km/h 2.3 mph /  3.7 km/h 72 % 0.00 in /  0 mm
08:23 53.8 °F /  12.1 °C 44.6 °F /  7 °C 29.98 in /  1015.1 hPa NNE 1.5 mph /  2.4 km/h 3.5 mph /  5.6 km/h 71 % 0.00 in /  0 mm
08:28 54.0 °F /  12.2 °C 44.4 °F /  6.9 °C 29.99 in /  1015.5 hPa NNE 1.9 mph /  3.1 km/h 2.3 mph /  3.7 km/h 70 % 0.00 in /  0 mm
08:34 54.1 °F /  12.3 °C 44.9 °F /  7.2 °C 29.99 in /  1015.5 hPa North 2.4 mph /  3.9 km/h 3.5 mph /  5.6 km/h 71 % 0.00 in /  0 mm
08:39 54.1 °F /  12.3 °C 44.5 °F /  6.9 °C 29.99 in /  1015.5 hPa NNE 1.9 mph /  3.1 km/h 4.0 mph /  6.4 km/h 70 % 0.00 in /  0 mm
08:44 54.1 °F /  12.3 °C 43.8 °F /  6.6 °C 29.98 in /  1015.1 hPa ENE 1.7 mph /  2.7 km/h 3.5 mph /  5.6 km/h 68 % 0.00 in /  0 mm
08:49 53.9 °F /  12.2 °C 43.2 °F /  6.2 °C 29.99 in /  1015.5 hPa NE 3.0 mph /  4.8 km/h 4.6 mph /  7.4 km/h 67 % 0.00 in /  0 mm
08:54 53.7 °F /  12.1 °C 43.4 °F /  6.3 °C 29.99 in /  1015.5 hPa NE 2.7 mph /  4.3 km/h 3.5 mph /  5.6 km/h 68 % 0.00 in /  0 mm
08:59 53.6 °F /  12 °C 43.7 °F /  6.5 °C 29.98 in /  1015.1 hPa NNE 1.8 mph /  2.9 km/h 3.5 mph /  5.6 km/h 69 % 0.00 in /  0 mm
09:04 53.9 °F /  12.2 °C 45.1 °F /  7.3 °C 29.98 in /  1015.1 hPa NNE 1.1 mph /  1.8 km/h 5.0 mph /  8 km/h 72 % 0.00 in /  0 mm
09:09 54.3 °F /  12.4 °C 45.1 °F /  7.3 °C 29.98 in /  1015.1 hPa NE 2.3 mph /  3.7 km/h 3.5 mph /  5.6 km/h 71 % 0.00 in /  0 mm
09:14 54.5 °F /  12.5 °C 43.8 °F /  6.6 °C 29.98 in /  1015.1 hPa ENE 2.7 mph /  4.3 km/h 5.0 mph /  8 km/h 67 % 0.00 in /  0 mm
09:19 54.5 °F /  12.5 °C 43.8 °F /  6.6 °C 29.98 in /  1015.1 hPa NE 1.8 mph /  2.9 km/h 4.0 mph /  6.4 km/h 67 % 0.00 in /  0 mm
09:24 54.7 °F /  12.6 °C 43.6 °F /  6.4 °C 29.98 in /  1015.1 hPa ENE 3.0 mph /  4.8 km/h 4.0 mph /  6.4 km/h 66 % 0.00 in /  0 mm
09:29 54.6 °F /  12.6 °C 43.5 °F /  6.4 °C 29.98 in /  1015.1 hPa ENE 1.7 mph /  2.7 km/h 3.0 mph /  4.8 km/h 66 % 0.00 in /  0 mm
09:34 54.7 °F /  12.6 °C 44.0 °F /  6.7 °C 29.98 in /  1015.1 hPa ENE 1.2 mph /  1.9 km/h 3.5 mph /  5.6 km/h 67 % 0.00 in /  0 mm
09:39 54.7 °F /  12.6 °C 43.6 °F /  6.4 °C 29.98 in /  1015.1 hPa NE 2.7 mph /  4.3 km/h 4.6 mph /  7.4 km/h 66 % 0.00 in /  0 mm
09:44 55.0 °F /  12.8 °C 45.0 °F /  7.2 °C 29.97 in /  1014.8 hPa ENE 2.4 mph /  3.9 km/h 3.5 mph /  5.6 km/h 69 % 0.00 in /  0 mm
09:45 55.0 °F /  12.8 °C 44.2 °F /  6.8 °C 29.97 in /  1014.8 hPa ENE 1.9 mph /  3.1 km/h 3.5 mph /  5.6 km/h 67 % 0.00 in /  0 mm
09:50 55.2 °F /  12.9 °C 44.0 °F /  6.7 °C 29.97 in /  1014.8 hPa ENE 3.5 mph /  5.6 km/h 5.8 mph /  9.3 km/h 66 % 0.00 in /  0 mm
09:55 55.1 °F /  12.8 °C 43.5 °F /  6.4 °C 29.97 in /  1014.8 hPa ENE 1.9 mph /  3.1 km/h 3.5 mph /  5.6 km/h 65 % 0.00 in /  0 mm
10:00 55.4 °F /  13 °C 44.2 °F /  6.8 °C 29.97 in /  1014.8 hPa ENE 3.4 mph /  5.5 km/h 5.0 mph /  8 km/h 66 % 0.00 in /  0 mm
10:05 55.6 °F /  13.1 °C 43.2 °F /  6.2 °C 29.97 in /  1014.8 hPa ENE 4.3 mph /  6.9 km/h 6.9 mph /  11.1 km/h 63 % 0.00 in /  0 mm
10:10 55.8 °F /  13.2 °C 43.8 °F /  6.6 °C 29.97 in /  1014.8 hPa ENE 2.8 mph /  4.5 km/h 4.0 mph /  6.4 km/h 64 % 0.00 in /  0 mm
10:15 55.9 °F /  13.3 °C 43.5 °F /  6.4 °C 29.97 in /  1014.8 hPa ENE 3.2 mph /  5.1 km/h 8.1 mph /  13 km/h 63 % 0.00 in /  0 mm
10:20 56.2 °F /  13.4 °C 44.6 °F /  7 °C 29.97 in /  1014.8 hPa NE 2.8 mph /  4.5 km/h 6.9 mph /  11.1 km/h 65 % 0.00 in /  0 mm
10:25 56.8 °F /  13.8 °C 46.0 °F /  7.8 °C 29.97 in /  1014.8 hPa NE 1.3 mph /  2.1 km/h 4.6 mph /  7.4 km/h 67 % 0.00 in /  0 mm
10:30 57.3 °F /  14.1 °C 44.4 °F /  6.9 °C 29.97 in /  1014.8 hPa ENE 4.6 mph /  7.4 km/h 5.8 mph /  9.3 km/h 62 % 0.00 in /  0 mm
10:35 57.3 °F /  14.1 °C 44.4 °F /  6.9 °C 29.98 in /  1015.1 hPa NE 1.7 mph /  2.7 km/h 3.5 mph /  5.6 km/h 62 % 0.00 in /  0 mm
10:40 57.5 °F /  14.2 °C 44.6 °F /  7 °C 29.98 in /  1015.1 hPa ENE 3.3 mph /  5.3 km/h 5.0 mph /  8 km/h 62 % 0.00 in /  0 mm
10:45 57.7 °F /  14.3 °C 46.0 °F /  7.8 °C 29.98 in /  1015.1 hPa East 1.1 mph /  1.8 km/h 3.0 mph /  4.8 km/h 65 % 0.00 in /  0 mm
10:50 58.5 °F /  14.7 °C 44.2 °F /  6.8 °C 29.98 in /  1015.1 hPa NE 4.9 mph /  7.9 km/h 5.8 mph /  9.3 km/h 59 % 0.00 in /  0 mm
10:55 58.9 °F /  14.9 °C 45.5 °F /  7.5 °C 29.98 in /  1015.1 hPa ENE 0.2 mph /  0.3 km/h 3.5 mph /  5.6 km/h 61 % 0.00 in /  0 mm
10:56 58.9 °F /  14.9 °C 45.5 °F /  7.5 °C 29.98 in /  1015.1 hPa ENE 1.5 mph /  2.4 km/h 3.0 mph /  4.8 km/h 61 % 0.00 in /  0 mm
11:01 59.1 °F /  15.1 °C 43.4 °F /  6.3 °C 29.98 in /  1015.1 hPa ENE 3.9 mph /  6.3 km/h 6.9 mph /  11.1 km/h 56 % 0.00 in /  0 mm
11:06 59.3 °F /  15.2 °C 45.8 °F /  7.7 °C 29.97 in /  1014.8 hPa ENE 2.0 mph /  3.2 km/h 3.5 mph /  5.6 km/h 61 % 0.00 in /  0 mm
11:11 60.0 °F /  15.6 °C 45.6 °F /  7.6 °C 29.97 in /  1014.8 hPa NE 3.2 mph /  5.1 km/h 6.9 mph /  11.1 km/h 59 % 0.00 in /  0 mm
11:16 60.7 °F /  15.9 °C 45.4 °F /  7.4 °C 29.97 in /  1014.8 hPa ENE 3.4 mph /  5.5 km/h 4.6 mph /  7.4 km/h 57 % 0.00 in /  0 mm
11:21 61.0 °F /  16.1 °C 44.7 °F /  7.1 °C 29.97 in /  1014.8 hPa ENE 1.3 mph /  2.1 km/h 5.8 mph /  9.3 km/h 55 % 0.00 in /  0 mm
11:26 61.4 °F /  16.3 °C 44.1 °F /  6.7 °C 29.98 in /  1015.1 hPa ENE 2.8 mph /  4.5 km/h 8.1 mph /  13 km/h 53 % 0.00 in /  0 mm
11:31 61.6 °F /  16.4 °C 42.8 °F /  6 °C 29.98 in /  1015.1 hPa ENE 0.7 mph /  1.1 km/h 1.2 mph /  1.9 km/h 50 % 0.00 in /  0 mm
11:37 61.9 °F /  16.6 °C 44.6 °F /  7 °C 29.97 in /  1014.8 hPa NE 0.5 mph /  0.8 km/h 2.3 mph /  3.7 km/h 53 % 0.00 in /  0 mm
11:42 62.0 °F /  16.7 °C 44.2 °F /  6.8 °C 29.97 in /  1014.8 hPa NE 2.2 mph /  3.5 km/h 3.5 mph /  5.6 km/h 52 % 0.00 in /  0 mm
11:47 62.2 °F /  16.8 °C 44.3 °F /  6.8 °C 29.97 in /  1014.8 hPa ENE 1.1 mph /  1.8 km/h 3.5 mph /  5.6 km/h 52 % 0.00 in /  0 mm
11:52 62.2 °F /  16.8 °C 41.7 °F /  5.4 °C 29.97 in /  1014.8 hPa ENE 0.8 mph /  1.3 km/h 3.0 mph /  4.8 km/h 47 % 0.00 in /  0 mm
11:57 61.9 °F /  16.6 °C 42.5 °F /  5.8 °C 29.97 in /  1014.8 hPa ENE 3.6 mph /  5.8 km/h 5.8 mph /  9.3 km/h 49 % 0.00 in /  0 mm
12:02 61.6 °F /  16.4 °C 41.7 °F /  5.4 °C 29.96 in /  1014.4 hPa ENE 3.7 mph /  6 km/h 4.0 mph /  6.4 km/h 48 % 0.00 in /  0 mm
12:07 61.3 °F /  16.3 °C 43.5 °F /  6.4 °C 29.96 in /  1014.4 hPa ENE 0.8 mph /  1.3 km/h 3.0 mph /  4.8 km/h 52 % 0.00 in /  0 mm
12:12 61.0 °F /  16.1 °C 41.2 °F /  5.1 °C 29.96 in /  1014.4 hPa NE 2.6 mph /  4.2 km/h 4.6 mph /  7.4 km/h 48 % 0.00 in /  0 mm
12:17 60.9 °F /  16.1 °C 41.6 °F /  5.3 °C 29.96 in /  1014.4 hPa NE 0.7 mph /  1.1 km/h 2.3 mph /  3.7 km/h 49 % 0.00 in /  0 mm
12:22 61.0 °F /  16.1 °C 41.7 °F /  5.4 °C 29.95 in /  1014.1 hPa NE 3.3 mph /  5.3 km/h 4.6 mph /  7.4 km/h 49 % 0.00 in /  0 mm
12:27 61.4 °F /  16.3 °C 44.1 °F /  6.7 °C 29.95 in /  1014.1 hPa NE 0.5 mph /  0.8 km/h 2.3 mph /  3.7 km/h 53 % 0.00 in /  0 mm
12:32 62.0 °F /  16.7 °C 43.7 °F /  6.5 °C 29.95 in /  1014.1 hPa ENE 1.2 mph /  1.9 km/h 2.3 mph /  3.7 km/h 51 % 0.00 in /  0 mm
12:37 62.3 °F /  16.8 °C 43.9 °F /  6.6 °C 29.95 in /  1014.1 hPa ENE 1.2 mph /  1.9 km/h 2.3 mph /  3.7 km/h 51 % 0.00 in /  0 mm
12:42 62.7 °F /  17.1 °C 43.8 °F /  6.6 °C 29.95 in /  1014.1 hPa North 3.1 mph /  5 km/h 3.5 mph /  5.6 km/h 50 % 0.00 in /  0 mm
12:47 63.2 °F /  17.3 °C 43.7 °F /  6.5 °C 29.95 in /  1014.1 hPa NE 0.6 mph /  1 km/h 3.5 mph /  5.6 km/h 49 % 0.00 in /  0 mm
12:52 62.9 °F /  17.2 °C 40.6 °F /  4.8 °C 29.95 in /  1014.1 hPa ENE 2.5 mph /  4 km/h 3.5 mph /  5.6 km/h 44 % 0.00 in /  0 mm
12:58 62.8 °F /  17.1 °C 41.1 °F /  5.1 °C 29.95 in /  1014.1 hPa ENE 3.8 mph /  6.1 km/h 4.0 mph /  6.4 km/h 45 % 0.00 in /  0 mm
12:59 62.7 °F /  17.1 °C 41.0 °F /  5 °C 29.95 in /  1014.1 hPa ENE 3.3 mph /  5.3 km/h 4.6 mph /  7.4 km/h 45 % 0.00 in /  0 mm
13:04 62.5 °F /  16.9 °C 42.0 °F /  5.6 °C 29.95 in /  1014.1 hPa ENE 3.8 mph /  6.1 km/h 6.9 mph /  11.1 km/h 47 % 0.00 in /  0 mm
13:09 62.6 °F /  17 °C 43.2 °F /  6.2 °C 29.95 in /  1014.1 hPa ENE 3.2 mph /  5.1 km/h 4.6 mph /  7.4 km/h 49 % 0.00 in /  0 mm
13:14 62.8 °F /  17.1 °C 43.3 °F /  6.3 °C 29.95 in /  1014.1 hPa ENE 3.2 mph /  5.1 km/h 4.0 mph /  6.4 km/h 49 % 0.00 in /  0 mm
13:19 62.9 °F /  17.2 °C 44.5 °F /  6.9 °C 29.94 in /  1013.8 hPa ENE 0.4 mph /  0.6 km/h 3.5 mph /  5.6 km/h 51 % 0.00 in /  0 mm
13:24 63.3 °F /  17.4 °C 44.9 °F /  7.2 °C 29.94 in /  1013.8 hPa ENE 2.8 mph /  4.5 km/h 7.0 mph /  11.3 km/h 51 % 0.00 in /  0 mm
13:29 63.4 °F /  17.4 °C 43.4 °F /  6.3 °C 29.94 in /  1013.8 hPa ENE 2.0 mph /  3.2 km/h 4.6 mph /  7.4 km/h 48 % 0.00 in /  0 mm
13:34 63.5 °F /  17.5 °C 44.0 °F /  6.7 °C 29.94 in /  1013.8 hPa ENE 1.8 mph /  2.9 km/h 4.6 mph /  7.4 km/h 49 % 0.00 in /  0 mm
13:39 63.8 °F /  17.7 °C 43.2 °F /  6.2 °C 29.94 in /  1013.8 hPa ENE 2.2 mph /  3.5 km/h 3.0 mph /  4.8 km/h 47 % 0.00 in /  0 mm
13:44 63.7 °F /  17.6 °C 43.1 °F /  6.2 °C 29.94 in /  1013.8 hPa NE 4.4 mph /  7.1 km/h 6.9 mph /  11.1 km/h 47 % 0.00 in /  0 mm
13:49 63.6 °F /  17.6 °C 43.5 °F /  6.4 °C 29.94 in /  1013.8 hPa ENE 2.1 mph /  3.4 km/h 6.9 mph /  11.1 km/h 48 % 0.00 in /  0 mm
13:54 63.5 °F /  17.5 °C 41.8 °F /  5.4 °C 29.94 in /  1013.8 hPa NE 3.0 mph /  4.8 km/h 6.9 mph /  11.1 km/h 45 % 0.00 in /  0 mm
13:59 63.5 °F /  17.5 °C 41.8 °F /  5.4 °C 29.94 in /  1013.8 hPa ENE 5.2 mph /  8.4 km/h 6.9 mph /  11.1 km/h 45 % 0.00 in /  0 mm
14:04 63.4 °F /  17.4 °C 42.2 °F /  5.7 °C 29.94 in /  1013.8 hPa ENE 3.9 mph /  6.3 km/h 7.0 mph /  11.3 km/h 46 % 0.00 in /  0 mm
14:10 63.5 °F /  17.5 °C 41.8 °F /  5.4 °C 29.94 in /  1013.8 hPa ENE 3.7 mph /  6 km/h 5.0 mph /  8 km/h 45 % 0.00 in /  0 mm
14:15 63.5 °F /  17.5 °C 42.3 °F /  5.7 °C 29.93 in /  1013.4 hPa NE 3.7 mph /  6 km/h 5.8 mph /  9.3 km/h 46 % 0.00 in /  0 mm
14:20 63.6 °F /  17.6 °C 42.4 °F /  5.8 °C 29.93 in /  1013.4 hPa ENE 2.2 mph /  3.5 km/h 4.6 mph /  7.4 km/h 46 % 0.00 in /  0 mm
14:25 63.4 °F /  17.4 °C 40.5 °F /  4.7 °C 29.94 in /  1013.8 hPa ENE 0.2 mph /  0.3 km/h 1.2 mph /  1.9 km/h 43 % 0.00 in /  0 mm
14:30 63.1 °F /  17.3 °C 40.2 °F /  4.6 °C 29.94 in /  1013.8 hPa NE 1.5 mph /  2.4 km/h 3.5 mph /  5.6 km/h 43 % 0.00 in /  0 mm
14:35 62.7 °F /  17.1 °C 41.6 °F /  5.3 °C 29.93 in /  1013.4 hPa ENE 0.3 mph /  0.5 km/h 2.0 mph /  3.2 km/h 46 % 0.00 in /  0 mm
14:40 62.2 °F /  16.8 °C 40.6 °F /  4.8 °C 29.93 in /  1013.4 hPa NE 2.2 mph /  3.5 km/h 3.5 mph /  5.6 km/h 45 % 0.00 in /  0 mm
14:45 61.8 °F /  16.6 °C 40.8 °F /  4.9 °C 29.93 in /  1013.4 hPa ENE 1.9 mph /  3.1 km/h 4.6 mph /  7.4 km/h 46 % 0.00 in /  0 mm
14:50 61.9 °F /  16.6 °C 43.0 °F /  6.1 °C 29.93 in /  1013.4 hPa ENE 1.6 mph /  2.6 km/h 2.3 mph /  3.7 km/h 50 % 0.00 in /  0 mm
14:55 62.0 °F /  16.7 °C 42.1 °F /  5.6 °C 29.93 in /  1013.4 hPa North 1.6 mph /  2.6 km/h 3.5 mph /  5.6 km/h 48 % 0.00 in /  0 mm
15:00 61.9 °F /  16.6 °C 41.4 °F /  5.2 °C 29.93 in /  1013.4 hPa NE 1.0 mph /  1.6 km/h 3.5 mph /  5.6 km/h 47 % 0.00 in /  0 mm
15:05 62.0 °F /  16.7 °C 41.5 °F /  5.3 °C 29.93 in /  1013.4 hPa NNE 2.0 mph /  3.2 km/h 3.5 mph /  5.6 km/h 47 % 0.00 in /  0 mm
15:10 61.9 °F /  16.6 °C 42.0 °F /  5.6 °C 29.93 in /  1013.4 hPa NNE 2.1 mph /  3.4 km/h 3.5 mph /  5.6 km/h 48 % 0.00 in /  0 mm
15:15 61.9 °F /  16.6 °C 42.0 °F /  5.6 °C 29.93 in /  1013.4 hPa NNE 1.5 mph /  2.4 km/h 3.0 mph /  4.8 km/h 48 % 0.00 in /  0 mm
15:20 61.7 °F /  16.5 °C 42.3 °F /  5.7 °C 29.93 in /  1013.4 hPa NNE 2.0 mph /  3.2 km/h 3.5 mph /  5.6 km/h 49 % 0.00 in /  0 mm
15:25 61.6 °F /  16.4 °C 41.7 °F /  5.4 °C 29.93 in /  1013.4 hPa ENE 0.8 mph /  1.3 km/h 3.5 mph /  5.6 km/h 48 % 0.00 in /  0 mm
15:30 61.3 °F /  16.3 °C 42.0 °F /  5.6 °C 29.93 in /  1013.4 hPa ENE 1.4 mph /  2.3 km/h 4.6 mph /  7.4 km/h 49 % 0.00 in /  0 mm
15:35 61.0 °F /  16.1 °C 43.2 °F /  6.2 °C 29.93 in /  1013.4 hPa ENE 1.9 mph /  3.1 km/h 4.6 mph /  7.4 km/h 52 % 0.00 in /  0 mm
15:40 60.6 °F /  15.9 °C 42.4 °F /  5.8 °C 29.93 in /  1013.4 hPa ENE 2.7 mph /  4.3 km/h 5.0 mph /  8 km/h 51 % 0.00 in /  0 mm
15:45 60.4 °F /  15.8 °C 43.2 °F /  6.2 °C 29.94 in /  1013.8 hPa NNE 2.3 mph /  3.7 km/h 5.8 mph /  9.3 km/h 53 % 0.00 in /  0 mm
15:50 60.2 °F /  15.7 °C 44.4 °F /  6.9 °C 29.93 in /  1013.4 hPa ENE 1.3 mph /  2.1 km/h 2.3 mph /  3.7 km/h 56 % 0.00 in /  0 mm
15:55 60.0 °F /  15.6 °C 42.3 °F /  5.7 °C 29.93 in /  1013.4 hPa SSE 5.2 mph /  8.4 km/h 8.1 mph /  13 km/h 52 % 0.00 in /  0 mm
16:00 59.7 °F /  15.4 °C 42.0 °F /  5.6 °C 29.93 in /  1013.4 hPa SE 3.5 mph /  5.6 km/h 6.9 mph /  11.1 km/h 52 % 0.00 in /  0 mm
16:05 59.7 °F /  15.4 °C 42.5 °F /  5.8 °C 29.93 in /  1013.4 hPa SE 1.9 mph /  3.1 km/h 3.0 mph /  4.8 km/h 53 % 0.00 in /  0 mm
16:10 59.8 °F /  15.4 °C 43.1 °F /  6.2 °C 29.94 in /  1013.8 hPa Calm   1.2 mph /  1.9 km/h 54 % 0.00 in /  0 mm
16:15 59.9 °F /  15.5 °C 42.7 °F /  5.9 °C 29.93 in /  1013.4 hPa Calm   1.2 mph /  1.9 km/h 53 % 0.00 in /  0 mm
16:20 60.0 °F /  15.6 °C 42.3 °F /  5.7 °C 29.92 in /  1013.1 hPa SSE 2.8 mph /  4.5 km/h 4.6 mph /  7.4 km/h 52 % 0.00 in /  0 mm
16:25 60.0 °F /  15.6 °C 42.8 °F /  6 °C 29.93 in /  1013.4 hPa SE 1.4 mph /  2.3 km/h 3.5 mph /  5.6 km/h 53 % 0.00 in /  0 mm
16:30 60.0 °F /  15.6 °C 42.3 °F /  5.7 °C 29.93 in /  1013.4 hPa SE 3.6 mph /  5.8 km/h 4.6 mph /  7.4 km/h 52 % 0.00 in /  0 mm
16:35 60.0 °F /  15.6 °C 42.8 °F /  6 °C 29.93 in /  1013.4 hPa SSE 0.1 mph /  0.2 km/h 1.2 mph /  1.9 km/h 53 % 0.00 in /  0 mm
16:40 60.1 °F /  15.6 °C 43.4 °F /  6.3 °C 29.93 in /  1013.4 hPa SSE 2.8 mph /  4.5 km/h 5.8 mph /  9.3 km/h 54 % 0.00 in /  0 mm
16:45 60.2 °F /  15.7 °C 44.0 °F /  6.7 °C 29.92 in /  1013.1 hPa SE 0.9 mph /  1.4 km/h 3.0 mph /  4.8 km/h 55 % 0.00 in /  0 mm
16:50 60.1 °F /  15.6 °C 43.9 °F /  6.6 °C 29.92 in /  1013.1 hPa Calm     55 % 0.00 in /  0 mm
16:55 60.2 °F /  15.7 °C 43.5 °F /  6.4 °C 29.93 in /  1013.4 hPa Calm     54 % 0.00 in /  0 mm
17:01 60.2 °F /  15.7 °C 43.5 °F /  6.4 °C 29.92 in /  1013.1 hPa Calm   3.5 mph /  5.6 km/h 54 % 0.00 in /  0 mm
17:06 60.2 °F /  15.7 °C 43.5 °F /  6.4 °C 29.93 in /  1013.4 hPa Calm   7.0 mph /  11.3 km/h 54 % 0.00 in /  0 mm
17:11 60.3 °F /  15.7 °C 43.1 °F /  6.2 °C 29.93 in /  1013.4 hPa Calm   2.0 mph /  3.2 km/h 53 % 0.00 in /  0 mm
17:16 60.3 °F /  15.7 °C 42.6 °F /  5.9 °C 29.93 in /  1013.4 hPa SSE 2.0 mph /  3.2 km/h 5.0 mph /  8 km/h 52 % 0.00 in /  0 mm
17:21 60.3 °F /  15.7 °C 43.1 °F /  6.2 °C 29.93 in /  1013.4 hPa SE 1.0 mph /  1.6 km/h 5.0 mph /  8 km/h 53 % 0.00 in /  0 mm
17:26 60.3 °F /  15.7 °C 43.6 °F /  6.4 °C 29.93 in /  1013.4 hPa SE 0.8 mph /  1.3 km/h 1.2 mph /  1.9 km/h 54 % 0.00 in /  0 mm
17:31 60.1 °F /  15.6 °C 43.9 °F /  6.6 °C 29.93 in /  1013.4 hPa SE 0.6 mph /  1 km/h 1.2 mph /  1.9 km/h 55 % 0.00 in /  0 mm
17:36 60.0 °F /  15.6 °C 42.8 °F /  6 °C 29.94 in /  1013.8 hPa SE 0.4 mph /  0.6 km/h 2.3 mph /  3.7 km/h 53 % 0.00 in /  0 mm
17:41 60.0 °F /  15.6 °C 43.8 °F /  6.6 °C 29.94 in /  1013.8 hPa SE 2.0 mph /  3.2 km/h 5.0 mph /  8 km/h 55 % 0.00 in /  0 mm
17:46 59.9 °F /  15.5 °C 42.7 °F /  5.9 °C 29.94 in /  1013.8 hPa SE 3.0 mph /  4.8 km/h 9.0 mph /  14.5 km/h 53 % 0.00 in /  0 mm
17:51 59.7 °F /  15.4 °C 42.5 °F /  5.8 °C 29.94 in /  1013.8 hPa SE 5.0 mph /  8 km/h 8.0 mph /  12.9 km/h 53 % 0.00 in /  0 mm
17:56 59.3 °F /  15.2 °C 42.2 °F /  5.7 °C 29.93 in /  1013.4 hPa SE 1.0 mph /  1.6 km/h 6.0 mph /  9.7 km/h 53 % 0.00 in /  0 mm
18:01 59.2 °F /  15.1 °C 42.6 °F /  5.9 °C 29.93 in /  1013.4 hPa SSE 3.1 mph /  5 km/h 5.8 mph /  9.3 km/h 54 % 0.00 in /  0 mm
18:06 59.0 °F /  15 °C 43.3 °F /  6.3 °C 29.93 in /  1013.4 hPa SE 2.7 mph /  4.3 km/h 6.9 mph /  11.1 km/h 56 % 0.00 in /  0 mm
18:11 58.8 °F /  14.9 °C 42.7 °F /  5.9 °C 29.94 in /  1013.8 hPa SE 2.9 mph /  4.7 km/h 4.6 mph /  7.4 km/h 55 % 0.00 in /  0 mm
18:16 58.6 °F /  14.8 °C 42.5 °F /  5.8 °C 29.94 in /  1013.8 hPa SSE 1.5 mph /  2.4 km/h 6.9 mph /  11.1 km/h 55 % 0.00 in /  0 mm
18:21 58.5 °F /  14.7 °C 42.8 °F /  6 °C 29.94 in /  1013.8 hPa SSE 2.3 mph /  3.7 km/h 5.0 mph /  8 km/h 56 % 0.00 in /  0 mm
18:26 58.3 °F /  14.6 °C 42.2 °F /  5.7 °C 29.94 in /  1013.8 hPa SE 2.6 mph /  4.2 km/h 6.9 mph /  11.1 km/h 55 % 0.00 in /  0 mm
18:31 58.1 °F /  14.5 °C 42.9 °F /  6.1 °C 29.95 in /  1014.1 hPa SE 0.8 mph /  1.3 km/h 2.3 mph /  3.7 km/h 57 % 0.00 in /  0 mm
18:36 57.8 °F /  14.3 °C 42.2 °F /  5.7 °C 29.95 in /  1014.1 hPa SE 2.2 mph /  3.5 km/h 7.0 mph /  11.3 km/h 56 % 0.00 in /  0 mm
18:41 57.7 °F /  14.3 °C 42.6 °F /  5.9 °C 29.95 in /  1014.1 hPa SE 1.2 mph /  1.9 km/h 3.5 mph /  5.6 km/h 57 % 0.00 in /  0 mm
18:46 57.5 °F /  14.2 °C 42.8 °F /  6 °C 29.95 in /  1014.1 hPa SE 1.4 mph /  2.3 km/h 5.0 mph /  8 km/h 58 % 0.00 in /  0 mm
18:51 57.3 °F /  14.1 °C 42.2 °F /  5.7 °C 29.95 in /  1014.1 hPa SSE 1.1 mph /  1.8 km/h 3.5 mph /  5.6 km/h 57 % 0.00 in /  0 mm
18:56 57.1 °F /  13.9 °C 42.9 °F /  6.1 °C 29.94 in /  1013.8 hPa SE 2.0 mph /  3.2 km/h 5.0 mph /  8 km/h 59 % 0.00 in /  0 mm
19:01 56.9 °F /  13.8 °C 42.3 °F /  5.7 °C 29.95 in /  1014.1 hPa SSE 2.8 mph /  4.5 km/h 4.6 mph /  7.4 km/h 58 % 0.00 in /  0 mm
19:06 56.7 °F /  13.7 °C 42.5 °F /  5.8 °C 29.95 in /  1014.1 hPa SE 0.3 mph /  0.5 km/h 2.3 mph /  3.7 km/h 59 % 0.00 in /  0 mm
19:12 56.6 °F /  13.7 °C 42.4 °F /  5.8 °C 29.95 in /  1014.1 hPa SE 2.5 mph /  4 km/h 5.8 mph /  9.3 km/h 59 % 0.00 in /  0 mm
19:17 56.4 °F /  13.6 °C 42.7 °F /  5.9 °C 29.95 in /  1014.1 hPa SE 1.6 mph /  2.6 km/h 2.0 mph /  3.2 km/h 60 % 0.00 in /  0 mm
19:22 56.3 °F /  13.5 °C 42.6 °F /  5.9 °C 29.95 in /  1014.1 hPa Calm   4.6 mph /  7.4 km/h 60 % 0.00 in /  0 mm
19:27 56.0 °F /  13.3 °C 42.3 °F /  5.7 °C 29.96 in /  1014.4 hPa SE 2.0 mph /  3.2 km/h 3.5 mph /  5.6 km/h 60 % 0.00 in /  0 mm
19:32 55.8 °F /  13.2 °C 42.5 °F /  5.8 °C 29.96 in /  1014.4 hPa SSE 2.5 mph /  4 km/h 4.0 mph /  6.4 km/h 61 % 0.00 in /  0 mm
19:37 55.7 °F /  13.2 °C 42.9 °F /  6.1 °C 29.96 in /  1014.4 hPa SSE 1.7 mph /  2.7 km/h 2.3 mph /  3.7 km/h 62 % 0.00 in /  0 mm
19:42 55.6 °F /  13.1 °C 42.8 °F /  6 °C 29.96 in /  1014.4 hPa SSE 0.8 mph /  1.3 km/h 2.3 mph /  3.7 km/h 62 % 0.00 in /  0 mm
19:47 55.4 °F /  13 °C 43.0 °F /  6.1 °C 29.96 in /  1014.4 hPa SE 2.0 mph /  3.2 km/h 3.5 mph /  5.6 km/h 63 % 0.00 in /  0 mm
19:52 55.1 °F /  12.8 °C 42.3 °F /  5.7 °C 29.96 in /  1014.4 hPa SSE 1.3 mph /  2.1 km/h 2.3 mph /  3.7 km/h 62 % 0.00 in /  0 mm
19:57 54.8 °F /  12.7 °C 42.4 °F /  5.8 °C 29.96 in /  1014.4 hPa SE 0.8 mph /  1.3 km/h 3.5 mph /  5.6 km/h 63 % 0.00 in /  0 mm
20:02 54.6 °F /  12.6 °C 42.3 °F /  5.7 °C 29.96 in /  1014.4 hPa SSE 1.3 mph /  2.1 km/h 3.5 mph /  5.6 km/h 63 % 0.00 in /  0 mm
20:07 54.4 °F /  12.4 °C 42.1 °F /  5.6 °C 29.96 in /  1014.4 hPa SE 1.3 mph /  2.1 km/h 3.5 mph /  5.6 km/h 63 % 0.00 in /  0 mm
20:13 54.2 °F /  12.3 °C 42.3 °F /  5.7 °C 29.96 in /  1014.4 hPa SSE 1.3 mph /  2.1 km/h 3.0 mph /  4.8 km/h 64 % 0.00 in /  0 mm
20:18 54.0 °F /  12.2 °C 42.1 °F /  5.6 °C 29.96 in /  1014.4 hPa SSE 0.2 mph /  0.3 km/h 2.3 mph /  3.7 km/h 64 % 0.00 in /  0 mm
20:23 53.8 °F /  12.1 °C 41.9 °F /  5.5 °C 29.96 in /  1014.4 hPa Calm     64 % 0.00 in /  0 mm
20:28 53.5 °F /  11.9 °C 42.0 °F /  5.6 °C 29.96 in /  1014.4 hPa SSE 1.0 mph /  1.6 km/h 3.5 mph /  5.6 km/h 65 % 0.00 in /  0 mm
20:33 53.2 °F /  11.8 °C 41.7 °F /  5.4 °C 29.96 in /  1014.4 hPa SSE 2.2 mph /  3.5 km/h 3.5 mph /  5.6 km/h 65 % 0.00 in /  0 mm
20:38 53.0 °F /  11.7 °C 41.9 °F /  5.5 °C 29.97 in /  1014.8 hPa Calm     66 % 0.00 in /  0 mm
20:43 53.0 °F /  11.7 °C 41.9 °F /  5.5 °C 29.96 in /  1014.4 hPa Calm     66 % 0.00 in /  0 mm
20:48 52.8 °F /  11.6 °C 42.1 °F /  5.6 °C 29.96 in /  1014.4 hPa SSE 0.1 mph /  0.2 km/h 1.2 mph /  1.9 km/h 67 % 0.00 in /  0 mm
20:53 52.6 °F /  11.4 °C 41.9 °F /  5.5 °C 29.96 in /  1014.4 hPa SSE 0.2 mph /  0.3 km/h 1.2 mph /  1.9 km/h 67 % 0.00 in /  0 mm
20:58 52.4 °F /  11.3 °C 42.1 °F /  5.6 °C 29.96 in /  1014.4 hPa SSE 1.6 mph /  2.6 km/h 3.0 mph /  4.8 km/h 68 % 0.00 in /  0 mm
21:03 52.2 °F /  11.2 °C 42.0 °F /  5.6 °C 29.96 in /  1014.4 hPa Calm     68 % 0.00 in /  0 mm
21:08 52.0 °F /  11.1 °C 42.1 °F /  5.6 °C 29.96 in /  1014.4 hPa Calm   1.2 mph /  1.9 km/h 69 % 0.00 in /  0 mm
21:13 51.9 °F /  11.1 °C 42.0 °F /  5.6 °C 29.97 in /  1014.8 hPa Calm     69 % 0.00 in /  0 mm
21:18 51.8 °F /  11 °C 41.9 °F /  5.5 °C 29.97 in /  1014.8 hPa Calm     69 % 0.00 in /  0 mm
21:23 51.7 °F /  10.9 °C 41.9 °F /  5.5 °C 29.97 in /  1014.8 hPa Calm   1.2 mph /  1.9 km/h 69 % 0.00 in /  0 mm
21:28 51.5 °F /  10.8 °C 42.4 °F /  5.8 °C 29.97 in /  1014.8 hPa SSE 0.5 mph /  0.8 km/h 2.3 mph /  3.7 km/h 71 % 0.00 in /  0 mm
21:33 51.3 °F /  10.7 °C 42.2 °F /  5.7 °C 29.97 in /  1014.8 hPa Calm   1.2 mph /  1.9 km/h 71 % 0.00 in /  0 mm
21:38 51.1 °F /  10.6 °C 42.4 °F /  5.8 °C 29.97 in /  1014.8 hPa SSE 1.2 mph /  1.9 km/h 1.2 mph /  1.9 km/h 72 % 0.00 in /  0 mm
21:44 50.9 °F /  10.5 °C 42.2 °F /  5.7 °C 29.97 in /  1014.8 hPa Calm   2.3 mph /  3.7 km/h 72 % 0.00 in /  0 mm
21:49 50.9 °F /  10.5 °C 42.2 °F /  5.7 °C 29.97 in /  1014.8 hPa SSE 0.9 mph /  1.4 km/h 3.5 mph /  5.6 km/h 72 % 0.00 in /  0 mm
21:54 50.8 °F /  10.4 °C 42.1 °F /  5.6 °C 29.97 in /  1014.8 hPa Calm     72 % 0.00 in /  0 mm
21:59 50.8 °F /  10.4 °C 42.1 °F /  5.6 °C 29.97 in /  1014.8 hPa Calm     72 % 0.00 in /  0 mm
22:04 50.7 °F /  10.4 °C 42.4 °F /  5.8 °C 29.98 in /  1015.1 hPa Calm     73 % 0.00 in /  0 mm
22:09 50.6 °F /  10.3 °C 42.3 °F /  5.7 °C 29.98 in /  1015.1 hPa SSE 0.2 mph /  0.3 km/h 1.2 mph /  1.9 km/h 73 % 0.00 in /  0 mm
22:14 50.5 °F /  10.3 °C 42.2 °F /  5.7 °C 29.98 in /  1015.1 hPa SSE 0.1 mph /  0.2 km/h 2.3 mph /  3.7 km/h 73 % 0.00 in /  0 mm
22:19 50.4 °F /  10.2 °C 42.4 °F /  5.8 °C 29.98 in /  1015.1 hPa Calm   3.5 mph /  5.6 km/h 74 % 0.00 in /  0 mm
22:24 50.4 °F /  10.2 °C 42.4 °F /  5.8 °C 29.98 in /  1015.1 hPa SE 0.1 mph /  0.2 km/h 1.2 mph /  1.9 km/h 74 % 0.00 in /  0 mm
22:29 50.3 °F /  10.2 °C 42.3 °F /  5.7 °C 29.98 in /  1015.1 hPa Calm     74 % 0.00 in /  0 mm
22:34 50.2 °F /  10.1 °C 42.2 °F /  5.7 °C 29.99 in /  1015.5 hPa Calm     74 % 0.00 in /  0 mm
22:39 50.1 °F /  10.1 °C 42.1 °F /  5.6 °C 29.99 in /  1015.5 hPa Calm   1.2 mph /  1.9 km/h 74 % 0.00 in /  0 mm
22:45 50.0 °F /  10 °C 42.4 °F /  5.8 °C 30.00 in /  1015.8 hPa Calm     75 % 0.00 in /  0 mm
22:50 49.8 °F /  9.9 °C 42.2 °F /  5.7 °C 29.99 in /  1015.5 hPa Calm     75 % 0.00 in /  0 mm
22:55 49.7 °F /  9.8 °C 42.1 °F /  5.6 °C 29.99 in /  1015.5 hPa Calm     75 % 0.00 in /  0 mm
23:00 49.5 °F /  9.7 °C 42.2 °F /  5.7 °C 29.99 in /  1015.5 hPa Calm     76 % 0.00 in /  0 mm
23:05 49.3 °F /  9.6 °C 42.4 °F /  5.8 °C 29.99 in /  1015.5 hPa Calm     77 % 0.00 in /  0 mm
23:10 49.1 °F /  9.5 °C 42.5 °F /  5.8 °C 29.99 in /  1015.5 hPa Calm     78 % 0.00 in /  0 mm
23:15 48.9 °F /  9.4 °C 42.3 °F /  5.7 °C 29.99 in /  1015.5 hPa Calm     78 % 0.00 in /  0 mm
23:20 48.8 °F /  9.3 °C 42.2 °F /  5.7 °C 30.00 in /  1015.8 hPa Calm     78 % 0.00 in /  0 mm
23:25 48.6 °F /  9.2 °C 42.0 °F /  5.6 °C 29.99 in /  1015.5 hPa Calm     78 % 0.00 in /  0 mm
23:30 48.5 °F /  9.2 °C 42.0 °F /  5.6 °C 29.99 in /  1015.5 hPa Calm     78 % 0.00 in /  0 mm
23:35 48.4 °F /  9.1 °C 41.9 °F /  5.5 °C 29.99 in /  1015.5 hPa Calm     78 % 0.00 in /  0 mm
23:40 48.2 °F /  9 °C 42.0 °F /  5.6 °C 30.00 in /  1015.8 hPa Calm     79 % 0.00 in /  0 mm
23:45 48.1 °F /  8.9 °C 41.9 °F /  5.5 °C 30.00 in /  1015.8 hPa Calm     79 % 0.00 in /  0 mm
23:55 47.8 °F /  8.8 °C 41.6 °F /  5.3 °C 30.00 in /  1015.8 hPa Calm     79 % 0.00 in /  0 mm
Crab Meadow Weather
Compliments of Weather Underground - 3 mb

Script developed by  Jim McMurry - jmcmurry@mwt.net Adapted for the template by  Wim van der Kuil - Leuven-Template.eu

Astronomy: The light of the Sun takes 8 minutes to reach Earth.